Station Historical Data
Daily Summary for May 6, 2012 Units:  Metric    English   Both
« Previous Day
Next Day »
Daily Weekly Monthly Yearly Custom
  High: Low: Average:
Temperature: 29.8 °C 18.6 °C 22.7 °C
Dew Point: 21.3 °C 16.8 °C 18.8 °C
Humidity: 93% 49% 80%
Wind Speed: 22.5km/h 0km/h 3.9km/h
Wind Gust: 25.7km/h - -
Wind- - South
Pressure: 1014.1 hPa 1010.4 hPa -
Precipitation: 0.25 mm    
Historical Graphs
 
 
Tabular Data for May 6, 2012
Time Temperature Dew Point Pressure Wind Wind Speed Wind Gust Humidity Rainfall Rate (Hourly) Conditions
00:00 22 °C 20.4 °C 1012.4 hPa Calm     91% 0 mm
00:01 21.9 °C 20.4 °C 1012.4 hPa Calm     91% 0 mm
00:06 21.8 °C 20.5 °C 1012.4 hPa Calm     92% 0 mm
00:11 21.8 °C 20.4 °C 1012.4 hPa Calm     92% 0 mm
00:16 21.8 °C 20.4 °C 1012.4 hPa Calm     92% 0 mm
00:21 21.8 °C 20.4 °C 1012.4 hPa Calm     92% 0 mm
00:26 21.8 °C 20.4 °C 1012.4 hPa Calm     92% 0 mm
00:31 21.7 °C 20.4 °C 1012.4 hPa Calm     92% 0 mm
00:36 21.7 °C 20.3 °C 1012.4 hPa Calm     92% 0 mm
00:41 21.6 °C 20.2 °C 1012.4 hPa Calm     92% 0 mm
00:46 21.5 °C 20.2 °C 1012.4 hPa Calm     92% 0 mm
00:51 21.6 °C 20.3 °C 1012.4 hPa Calm     92% 0 mm
00:56 21.6 °C 20.2 °C 1012.4 hPa Calm     92% 0 mm
01:01 21.6 °C 20.2 °C 1012.4 hPa Calm     92% 0 mm
01:06 21.6 °C 20.3 °C 1012.4 hPa Calm     92% 0 mm
01:11 21.7 °C 20.3 °C 1012.4 hPa Calm     92% 0 mm
01:16 21.7 °C 20.3 °C 1012.4 hPa Calm     92% 0 mm
01:21 21.7 °C 20.3 °C 1012.4 hPa NNE 1.6 km/h 1.6 km/h 92% 0 mm
01:26 21.8 °C 20.4 °C 1012.1 hPa Calm     92% 0 mm
01:31 21.9 °C 20.6 °C 1012.1 hPa Calm     92% 0 mm
01:36 22 °C 20.7 °C 1012.1 hPa Calm     92% 0 mm
01:41 22.2 °C 20.8 °C 1012.1 hPa Calm   1.6 km/h 92% 0 mm
01:47 22.2 °C 20.7 °C 1012.1 hPa Calm     91% 0 mm
01:52 22.2 °C 20.7 °C 1012.1 hPa Calm     91% 0 mm
01:57 22.1 °C 20.6 °C 1012.1 hPa Calm     91% 0 mm
02:02 21.9 °C 20.4 °C 1012.1 hPa Calm     91% 0 mm
02:07 21.8 °C 20.2 °C 1012.1 hPa Calm     91% 0 mm
02:12 21.7 °C 20.3 °C 1012.1 hPa Calm     92% 0 mm
02:17 21.6 °C 20.2 °C 1012.1 hPa Calm     92% 0 mm
02:22 21.4 °C 20.1 °C 1012.1 hPa Calm     92% 0 mm
02:27 21.4 °C 20.1 °C 1012.1 hPa Calm     92% 0 mm
02:32 21.6 °C 20.2 °C 1012.1 hPa Calm     92% 0 mm
02:37 21.5 °C 20.2 °C 1012.1 hPa Calm     92% 0 mm
02:42 21.5 °C 20.2 °C 1012.1 hPa Calm     92% 0 mm
02:47 21.5 °C 20.2 °C 1012.1 hPa Calm     92% 0 mm
02:52 21.5 °C 20.2 °C 1012.1 hPa Calm     92% 0 mm
02:57 21.4 °C 20.1 °C 1012.1 hPa Calm     92% 0 mm
03:02 21.4 °C 20.1 °C 1012.1 hPa Calm     92% 0 mm
03:07 21.3 °C 19.9 °C 1011.7 hPa Calm     92% 0 mm
03:12 21.2 °C 19.8 °C 1011.7 hPa Calm     92% 0 mm
03:17 21.2 °C 19.9 °C 1011.7 hPa Calm     92% 0 mm
03:22 21.1 °C 19.8 °C 1011.7 hPa Calm     92% 0 mm
03:27 21.1 °C 19.9 °C 1011.7 hPa Calm     93% 0 mm
03:32 20.9 °C 19.6 °C 1011.7 hPa Calm     92% 0 mm
03:37 20.8 °C 19.6 °C 1011.7 hPa Calm     93% 0 mm
03:42 20.8 °C 19.7 °C 1011.7 hPa Calm     93% 0 mm
03:47 20.9 °C 19.7 °C 1011.7 hPa Calm     93% 0 mm
03:52 20.8 °C 19.7 °C 1011.7 hPa Calm     93% 0 mm
03:57 20.8 °C 19.6 °C 1011.7 hPa Calm     93% 0 mm
04:02 20.8 °C 19.6 °C 1011.7 hPa Calm     93% 0 mm
04:07 20.7 °C 19.5 °C 1011.7 hPa Calm     93% 0 mm
04:12 20.6 °C 19.4 °C 1011.7 hPa Calm     93% 0 mm
04:17 20.6 °C 19.4 °C 1012.1 hPa Calm     93% 0 mm
04:22 20.6 °C 19.4 °C 1012.1 hPa Calm     93% 0 mm
04:27 20.6 °C 19.4 °C 1012.1 hPa Calm     93% 0 mm
04:32 20.6 °C 19.4 °C 1012.1 hPa Calm     93% 0 mm
04:37 20.7 °C 19.5 °C 1012.1 hPa Calm     93% 0 mm
04:42 20.8 °C 19.6 °C 1012.1 hPa North 1.6 km/h 1.6 km/h 93% 0 mm
04:47 20.8 °C 19.7 °C 1012.1 hPa North 1.6 km/h 1.6 km/h 93% 0 mm
04:52 20.8 °C 19.6 °C 1012.1 hPa North 1.6 km/h 1.6 km/h 93% 0 mm
04:57 20.8 °C 19.7 °C 1011.7 hPa North 1.6 km/h 3.2 km/h 93% 0 mm
05:02 20.9 °C 19.8 °C 1012.1 hPa North 1.6 km/h 1.6 km/h 93% 0 mm
05:07 20.5 °C 19.3 °C 1012.4 hPa NNW 17.7 km/h 17.7 km/h 93% 0 mm
05:13 20.6 °C 19.4 °C 1012.8 hPa NNW 14.5 km/h 25.7 km/h 93% 0 mm
05:18 20.8 °C 19.4 °C 1012.8 hPa WNW 22.5 km/h 22.5 km/h 92% 0 mm
05:23 20.8 °C 19.1 °C 1012.8 hPa NNW 12.9 km/h 19.3 km/h 90% 0 mm
05:28 20.8 °C 18.7 °C 1012.8 hPa NW 12.9 km/h 19.3 km/h 88% 0 mm
05:33 20.8 °C 18.2 °C 1012.8 hPa NNW 14.5 km/h 19.3 km/h 85% 0 mm
05:38 20.8 °C 17.8 °C 1012.8 hPa NW 14.5 km/h 25.7 km/h 83% 0 mm
05:43 20.7 °C 17.6 °C 1012.4 hPa NW 11.3 km/h 20.9 km/h 82% 0 mm
05:48 20.7 °C 17.5 °C 1012.4 hPa NNW 19.3 km/h 19.3 km/h 82% 0 mm
05:53 20.6 °C 17.4 °C 1012.4 hPa NW 12.9 km/h 16.1 km/h 82% 0 mm
05:58 20.4 °C 17.3 °C 1012.4 hPa NNW 8 km/h 14.5 km/h 82% 0 mm
06:03 20.3 °C 17.2 °C 1012.4 hPa North 9.7 km/h 11.3 km/h 82% 0 mm
06:08 20.2 °C 17.2 °C 1012.8 hPa North 8 km/h 14.5 km/h 83% 0 mm
06:13 20.1 °C 17.3 °C 1012.8 hPa North 14.5 km/h 17.7 km/h 84% 0 mm
06:18 20 °C 17.2 °C 1013.1 hPa NNW 9.7 km/h 14.5 km/h 84% 0 mm
06:23 19.9 °C 17.3 °C 1013.1 hPa NE 6.4 km/h 17.7 km/h 85% 0 mm
06:28 19.7 °C 17.1 °C 1012.8 hPa NNW 6.4 km/h 12.9 km/h 85% 0 mm
06:33 19.6 °C 17.2 °C 1013.1 hPa North 3.2 km/h 8 km/h 86% 0 mm
06:38 19.4 °C 17.2 °C 1012.8 hPa North 4.8 km/h 9.7 km/h 87% 0 mm
06:43 19.3 °C 17.1 °C 1013.1 hPa NNE 6.4 km/h 8 km/h 87% 0 mm
06:48 19.2 °C 17 °C 1013.1 hPa NNE 4.8 km/h 9.7 km/h 87% 0 mm
06:53 19.2 °C 17.1 °C 1013.1 hPa NE 6.4 km/h 6.4 km/h 88% 0 mm
06:58 19.1 °C 17 °C 1013.1 hPa NNW 3.2 km/h 9.7 km/h 88% 0 mm
07:03 19 °C 16.9 °C 1013.4 hPa North 3.2 km/h 6.4 km/h 88% 0 mm
07:08 18.9 °C 17.1 °C 1013.4 hPa North 3.2 km/h 6.4 km/h 89% 0 mm
07:13 18.8 °C 17 °C 1013.4 hPa NNW 1.6 km/h 4.8 km/h 89% 0 mm
07:18 18.7 °C 17.1 °C 1013.1 hPa Calm   4.8 km/h 90% 0 mm
07:23 18.7 °C 17 °C 1013.1 hPa NW 1.6 km/h 3.2 km/h 90% 0 mm
07:28 18.6 °C 16.9 °C 1012.8 hPa NW 1.6 km/h 1.6 km/h 90% 0 mm
07:34 18.6 °C 16.9 °C 1012.8 hPa ESE 3.2 km/h 3.2 km/h 90% 0 mm
07:39 18.6 °C 16.9 °C 1012.8 hPa Calm   3.2 km/h 90% 0 mm
07:44 18.6 °C 16.9 °C 1012.8 hPa North 1.6 km/h 1.6 km/h 90% 0 mm
07:49 18.6 °C 16.9 °C 1012.8 hPa Calm   3.2 km/h 90% 0 mm
07:54 18.6 °C 16.9 °C 1012.8 hPa Calm   1.6 km/h 90% 0 mm
07:59 18.6 °C 16.9 °C 1012.8 hPa ESE 3.2 km/h 3.2 km/h 90% 0 mm
08:04 18.7 °C 17 °C 1012.8 hPa ENE 1.6 km/h 3.2 km/h 90% 0 mm
08:09 18.7 °C 16.9 °C 1012.4 hPa ENE 3.2 km/h 4.8 km/h 89% 0 mm
08:14 18.8 °C 16.9 °C 1012.4 hPa NE 3.2 km/h 4.8 km/h 89% 0 mm
08:19 18.8 °C 16.8 °C 1012.1 hPa East 4.8 km/h 4.8 km/h 88% 0 mm
08:24 19.1 °C 16.8 °C 1011.7 hPa ENE 8 km/h 9.7 km/h 87% 0 mm
08:29 19.1 °C 16.9 °C 1011.7 hPa SE 8 km/h 14.5 km/h 87% 0 mm
08:34 19 °C 16.9 °C 1012.4 hPa SSW 1.6 km/h 6.4 km/h 88% 0 mm
08:39 18.9 °C 16.9 °C 1012.8 hPa West 3.2 km/h 4.8 km/h 88% 0 mm
08:44 19 °C 16.9 °C 1013.1 hPa West 4.8 km/h 25.7 km/h 88% 0 mm
08:49 19.1 °C 16.9 °C 1013.4 hPa SW 8 km/h 8 km/h 87% 0 mm
08:54 19 °C 16.9 °C 1013.4 hPa SSE 3.2 km/h 19.3 km/h 88% 0 mm
08:59 18.8 °C 17 °C 1013.4 hPa SSW 3.2 km/h 8 km/h 89% 0 mm
09:04 18.8 °C 17 °C 1013.4 hPa Calm   4.8 km/h 89% 0 mm
09:09 18.9 °C 17.1 °C 1013.4 hPa ESE 9.7 km/h 9.7 km/h 89% 0 mm
09:14 18.9 °C 17.2 °C 1013.4 hPa SE 6.4 km/h 11.3 km/h 90% 0 mm
09:19 19 °C 17.2 °C 1014.1 hPa WNW 6.4 km/h 8 km/h 89% 0 mm
09:24 19.1 °C 17.2 °C 1013.8 hPa ESE 4.8 km/h 4.8 km/h 89% 0 mm
09:29 19.2 °C 17.3 °C 1013.8 hPa Calm   3.2 km/h 89% 0 mm
09:34 19.3 °C 17.4 °C 1013.8 hPa ENE 3.2 km/h 3.2 km/h 89% 0 mm
09:39 19.4 °C 17.6 °C 1013.8 hPa Calm   1.6 km/h 89% 0 mm
09:44 19.6 °C 17.7 °C 1013.8 hPa ENE 4.8 km/h 4.8 km/h 89% 0 mm
09:49 19.6 °C 17.8 °C 1013.8 hPa Calm   4.8 km/h 89% 0 mm
09:54 19.8 °C 17.6 °C 1013.8 hPa NE 4.8 km/h 6.4 km/h 87% 0 mm
09:59 20 °C 17.4 °C 1013.8 hPa ENE 6.4 km/h 8 km/h 85% 0 mm
10:04 20.2 °C 17.6 °C 1013.8 hPa ENE 4.8 km/h 8 km/h 85% 0 mm
10:09 20.2 °C 17.6 °C 1013.8 hPa East 4.8 km/h 11.3 km/h 85% 0 mm
10:14 20.3 °C 17.5 °C 1013.8 hPa ENE 9.7 km/h 11.3 km/h 84% 0 mm
10:19 20.3 °C 17.5 °C 1013.8 hPa ENE 6.4 km/h 12.9 km/h 84% 0 mm
10:24 20.3 °C 17.7 °C 1013.8 hPa NE 4.8 km/h 9.7 km/h 85% 0 mm
10:29 20.4 °C 17.7 °C 1013.8 hPa ESE 4.8 km/h 12.9 km/h 84% 0 mm
10:34 20.5 °C 17.7 °C 1013.8 hPa SE 6.4 km/h 12.9 km/h 84% 0 mm
10:39 20.7 °C 18.1 °C 1013.8 hPa ESE 8 km/h 8 km/h 85% 0 mm
10:44 20.9 °C 18.1 °C 1013.8 hPa SE 4.8 km/h 11.3 km/h 84% 0 mm
10:49 21.1 °C 18.1 °C 1013.8 hPa SE 8 km/h 8 km/h 83% 0 mm
10:54 21.2 °C 18 °C 1013.8 hPa SE 4.8 km/h 9.7 km/h 82% 0 mm
11:00 21.4 °C 18.2 °C 1013.8 hPa SE 6.4 km/h 11.3 km/h 82% 0 mm
11:05 21.7 °C 18.5 °C 1013.8 hPa SE 8 km/h 8 km/h 82% 0 mm
11:10 21.9 °C 18.3 °C 1013.8 hPa South 3.2 km/h 9.7 km/h 80% 0 mm
11:15 22 °C 18.6 °C 1013.8 hPa ESE 6.4 km/h 9.7 km/h 81% 0 mm
11:20 22.3 °C 18.8 °C 1013.8 hPa ESE 4.8 km/h 11.3 km/h 81% 0 mm
11:25 22.5 °C 18.5 °C 1013.8 hPa ESE 4.8 km/h 9.7 km/h 78% 0 mm
11:30 22.8 °C 18.6 °C 1013.8 hPa SSW 6.4 km/h 9.7 km/h 77% 0 mm
11:35 22.9 °C 18.4 °C 1013.8 hPa ESE 9.7 km/h 11.3 km/h 76% 0 mm
11:40 23 °C 18.8 °C 1013.8 hPa SE 9.7 km/h 11.3 km/h 77% 0 mm
11:45 23.1 °C 18.8 °C 1013.8 hPa SE 9.7 km/h 12.9 km/h 77% 0 mm
11:51 23.1 °C 18.7 °C 1013.8 hPa SE 11.3 km/h 12.9 km/h 76% 0 mm
11:56 23.2 °C 18.8 °C 1013.8 hPa SSW 4.8 km/h 14.5 km/h 76% 0 mm
12:01 23.4 °C 18.6 °C 1013.8 hPa SE 11.3 km/h 14.5 km/h 74% 0 mm
12:06 23.8 °C 18.4 °C 1013.8 hPa South 6.4 km/h 12.9 km/h 72% 0 mm
12:11 24.2 °C 18.8 °C 1013.8 hPa SE 8 km/h 11.3 km/h 72% 0 mm
12:16 24.5 °C 18.7 °C 1013.8 hPa Calm   8 km/h 70% 0 mm
12:21 24.7 °C 18.7 °C 1013.8 hPa SE 1.6 km/h 11.3 km/h 69% 0 mm
12:26 24.9 °C 18.6 °C 1013.8 hPa SE 6.4 km/h 9.7 km/h 68% 0 mm
12:31 25.1 °C 18.7 °C 1013.4 hPa ESE 6.4 km/h 8 km/h 68% 0 mm
12:36 25.3 °C 19 °C 1013.4 hPa SSE 4.8 km/h 9.7 km/h 68% 0 mm
12:41 25.7 °C 19.3 °C 1013.4 hPa SE 11.3 km/h 14.5 km/h 68% 0 mm
12:46 25.7 °C 19.1 °C 1013.4 hPa South 6.4 km/h 11.3 km/h 67% 0 mm
12:51 26 °C 18.9 °C 1013.4 hPa South 4.8 km/h 9.7 km/h 65% 0 mm
12:56 26.2 °C 19.4 °C 1013.1 hPa SSE 1.6 km/h 9.7 km/h 66% 0 mm
13:01 26.5 °C 19.2 °C 1013.1 hPa SSE 12.9 km/h 12.9 km/h 64% 0 mm
13:06 26.6 °C 19.9 °C 1013.1 hPa SE 3.2 km/h 8 km/h 67% 0 mm
13:11 26.8 °C 19.7 °C 1013.1 hPa ESE 4.8 km/h 8 km/h 65% 0 mm
13:16 27 °C 20.1 °C 1013.1 hPa SSE 6.4 km/h 8 km/h 66% 0 mm
13:21 27 °C 19.1 °C 1013.1 hPa WSW 4.8 km/h 11.3 km/h 62% 0 mm
13:26 27.3 °C 18.8 °C 1013.1 hPa South 4.8 km/h 12.9 km/h 60% 0 mm
13:31 27.6 °C 19.1 °C 1013.1 hPa South 6.4 km/h 11.3 km/h 60% 0 mm
13:36 27.8 °C 19.3 °C 1013.1 hPa SSW 4.8 km/h 4.8 km/h 60% 0 mm
13:41 28 °C 18.1 °C 1013.1 hPa ESE 8 km/h 14.5 km/h 55% 0 mm
13:47 27.9 °C 18.9 °C 1013.1 hPa SE 3.2 km/h 8 km/h 58% 0 mm
13:52 28.2 °C 17.7 °C 1012.8 hPa SE 1.6 km/h 3.2 km/h 53% 0 mm
13:57 28.5 °C 18.6 °C 1012.8 hPa Calm   6.4 km/h 55% 0 mm
14:02 28.9 °C 18.1 °C 1012.8 hPa ESE 1.6 km/h 3.2 km/h 52% 0 mm
14:04 29.1 °C 19.1 °C 1012.8 hPa WSW 4.8 km/h 8 km/h 55% 0 mm
14:09 29 °C 18.4 °C 1012.8 hPa West 11.3 km/h 11.3 km/h 53% 0 mm
14:14 28.6 °C 17.8 °C 1012.8 hPa NW 4.8 km/h 9.7 km/h 52% 0 mm
14:19 28.7 °C 18.7 °C 1012.8 hPa WSW 1.6 km/h 4.8 km/h 55% 0 mm
14:24 29.1 °C 18.8 °C 1012.8 hPa WNW 6.4 km/h 6.4 km/h 54% 0 mm
14:29 29.2 °C 18.7 °C 1012.8 hPa SSW 4.8 km/h 8 km/h 53% 0 mm
14:34 29.3 °C 17.5 °C 1012.4 hPa NNW 4.8 km/h 8 km/h 49% 0 mm
14:39 29.3 °C 17.5 °C 1012.4 hPa SSW 1.6 km/h 6.4 km/h 49% 0 mm
14:44 29.5 °C 17.7 °C 1012.4 hPa West 3.2 km/h 6.4 km/h 49% 0 mm
14:49 29.7 °C 17.9 °C 1012.4 hPa West 6.4 km/h 6.4 km/h 49% 0 mm
14:54 29.5 °C 17.7 °C 1012.4 hPa SSW 3.2 km/h 6.4 km/h 49% 0 mm
14:59 29.4 °C 17.9 °C 1012.1 hPa West 1.6 km/h 6.4 km/h 50% 0 mm
15:04 29.8 °C 17.9 °C 1012.1 hPa WNW 6.4 km/h 6.4 km/h 49% 0 mm
15:09 29.6 °C 18.1 °C 1012.1 hPa NNE 6.4 km/h 8 km/h 50% 0 mm
15:10 29.5 °C 18 °C 1012.1 hPa North 4.8 km/h 8 km/h 50% 0 mm
15:15 29.3 °C 18.2 °C 1012.1 hPa ESE 1.6 km/h 4.8 km/h 51% 0 mm
15:20 29.3 °C 18.4 °C 1012.1 hPa WSW 1.6 km/h 3.2 km/h 52% 0 mm
15:21 29.3 °C 18.4 °C 1012.1 hPa Calm   3.2 km/h 52% 0 mm
15:26 29.4 °C 18.2 °C 1012.1 hPa WNW 6.4 km/h 6.4 km/h 51% 0 mm
15:31 29.1 °C 18.5 °C 1012.1 hPa West 4.8 km/h 9.7 km/h 53% 0 mm
15:36 28.8 °C 18.3 °C 1012.1 hPa WNW 8 km/h 11.3 km/h 53% 0 mm
15:41 28.4 °C 18.8 °C 1012.1 hPa WNW 4.8 km/h 11.3 km/h 56% 0 mm
15:46 28.1 °C 18.8 °C 1012.1 hPa WNW 6.4 km/h 14.5 km/h 57% 0 mm
15:51 27.8 °C 18.8 °C 1012.1 hPa WNW 17.7 km/h 24.1 km/h 58% 0 mm
15:56 27.1 °C 18.7 °C 1012.1 hPa NW 17.7 km/h 20.9 km/h 60% 0 mm
16:01 26.6 °C 18.4 °C 1012.1 hPa WNW 11.3 km/h 14.5 km/h 61% 0 mm
16:06 26.1 °C 17.7 °C 1012.1 hPa WNW 19.3 km/h 24.1 km/h 60% 0 mm
16:11 25.7 °C 17.7 °C 1012.1 hPa WNW 12.9 km/h 16.1 km/h 61% 0 mm
16:16 25.5 °C 17.7 °C 1012.1 hPa West 6.4 km/h 11.3 km/h 62% 0 mm
16:21 25.2 °C 17.1 °C 1012.1 hPa West 8 km/h 20.9 km/h 61% 0 mm
16:26 24.1 °C 17.3 °C 1012.1 hPa SSW 6.4 km/h 16.1 km/h 66% 0 mm
16:31 23.7 °C 17.2 °C 1012.1 hPa SW 11.3 km/h 17.7 km/h 67% 0 mm
16:37 23.5 °C 17.5 °C 1012.1 hPa West 11.3 km/h 17.7 km/h 69% 0 mm
16:42 23.5 °C 17.5 °C 1012.1 hPa West 8 km/h 11.3 km/h 69% 0 mm
16:47 23.3 °C 17.8 °C 1012.1 hPa WSW 4.8 km/h 9.7 km/h 71% 0 mm
16:52 23.2 °C 18.1 °C 1012.1 hPa WSW 8 km/h 9.7 km/h 73% 0 mm
16:57 23.1 °C 17.9 °C 1011.7 hPa SW 4.8 km/h 8 km/h 73% 0 mm
17:02 23.2 °C 17.8 °C 1011.7 hPa SW 4.8 km/h 9.7 km/h 72% 0 mm
17:07 23.3 °C 17.9 °C 1011.7 hPa SSW 4.8 km/h 6.4 km/h 72% 0 mm
17:12 23.2 °C 18.3 °C 1011.7 hPa SW 6.4 km/h 8 km/h 74% 0 mm
17:17 22.8 °C 18.6 °C 1011.7 hPa West 3.2 km/h 6.4 km/h 77% 0 mm
17:22 22.6 °C 18.6 °C 1011.4 hPa SSW 3.2 km/h 6.4 km/h 78% 0 mm
17:27 22.4 °C 19 °C 1011.1 hPa SSW 4.8 km/h 8 km/h 81% 0 mm
17:32 22.3 °C 18.7 °C 1011.1 hPa WSW 4.8 km/h 4.8 km/h 80% 0 mm
17:38 22.4 °C 19 °C 1011.4 hPa WSW 1.6 km/h 3.2 km/h 81% 0 mm
17:43 22.6 °C 19.6 °C 1011.1 hPa Calm   3.2 km/h 83% 0 mm
17:48 22.7 °C 19.8 °C 1011.1 hPa WSW 1.6 km/h 1.6 km/h 84% 0 mm
17:53 22.9 °C 19.7 °C 1011.1 hPa WSW 1.6 km/h 1.6 km/h 82% 0 mm
17:58 23.1 °C 19.9 °C 1010.7 hPa Calm   1.6 km/h 82% 0 mm
18:03 23.3 °C 19.9 °C 1010.7 hPa SW 1.6 km/h 1.6 km/h 81% 0 mm
18:08 23.6 °C 20.7 °C 1010.7 hPa West 1.6 km/h 3.2 km/h 84% 0 mm
18:13 23.5 °C 20.8 °C 1010.7 hPa Calm   1.6 km/h 85% 0 mm
18:18 23.6 °C 20.7 °C 1010.7 hPa NNW 1.6 km/h 1.6 km/h 84% 0 mm
18:23 23.6 °C 20.1 °C 1010.7 hPa Calm   1.6 km/h 81% 0 mm
18:28 23.6 °C 19.9 °C 1010.7 hPa Calm   1.6 km/h 80% 0 mm
18:33 23.7 °C 19.9 °C 1010.7 hPa Calm   1.6 km/h 79% 0 mm
18:38 23.9 °C 20.2 °C 1010.7 hPa Calm     80% 0 mm
18:43 24.2 °C 20.1 °C 1010.4 hPa Calm     78% 0 mm
18:48 24.6 °C 20.1 °C 1010.7 hPa Calm     76% 0 mm
18:53 24.8 °C 20.3 °C 1010.7 hPa Calm     76% 0 mm
18:59 25.3 °C 19.7 °C 1010.7 hPa Calm     71% 0 mm
19:04 25.4 °C 19.5 °C 1010.7 hPa Calm     70% 0 mm
19:09 25.3 °C 19.9 °C 1010.4 hPa WSW 1.6 km/h 1.6 km/h 72% 0 mm
19:14 25.2 °C 20.7 °C 1010.4 hPa Calm   1.6 km/h 76% 0 mm
19:19 25.1 °C 20.6 °C 1010.4 hPa Calm   1.6 km/h 76% 0 mm
19:24 25 °C 19.8 °C 1010.7 hPa Calm   1.6 km/h 73% 0 mm
19:29 25.4 °C 20.4 °C 1010.4 hPa Calm     74% 0 mm
19:34 25.7 °C 19.6 °C 1010.4 hPa Calm     69% 0 mm
19:39 25.8 °C 21.1 °C 1010.4 hPa Calm     75% 0 mm
19:44 25.7 °C 20.7 °C 1010.7 hPa ENE 1.6 km/h 1.6 km/h 74% 0 mm
19:49 25.3 °C 20.9 °C 1010.7 hPa NE 3.2 km/h 3.2 km/h 77% 0 mm
19:54 24.9 °C 20.4 °C 1010.7 hPa NNE 1.6 km/h 3.2 km/h 76% 0 mm
20:00 24.8 °C 20.5 °C 1010.7 hPa NNE 1.6 km/h 1.6 km/h 77% 0 mm
20:04 24.8 °C 20.9 °C 1010.7 hPa North 3.2 km/h 3.2 km/h 79% 0 mm
20:10 24.7 °C 21.2 °C 1011.1 hPa North 1.6 km/h 3.2 km/h 81% 0 mm
20:15 24.4 °C 21.3 °C 1010.7 hPa North 1.6 km/h 1.6 km/h 83% 0 mm
20:20 24.1 °C 21.2 °C 1011.1 hPa North 1.6 km/h 1.6 km/h 84% 0 mm
20:21 24 °C 20.9 °C 1011.1 hPa North 1.6 km/h 1.6 km/h 83% 0 mm
20:26 23.7 °C 20.8 °C 1011.1 hPa NNE 1.6 km/h 3.2 km/h 84% 0 mm
20:31 23.3 °C 19.6 °C 1011.1 hPa NNE 3.2 km/h 3.2 km/h 80% 0 mm
20:36 23.2 °C 19.9 °C 1011.1 hPa NNE 3.2 km/h 3.2 km/h 82% 0 mm
20:41 23 °C 19.4 °C 1011.1 hPa NE 4.8 km/h 4.8 km/h 80% 0 mm
20:46 22.9 °C 19.3 °C 1011.1 hPa NNE 3.2 km/h 3.2 km/h 80% 0 mm
20:51 22.9 °C 19.3 °C 1011.1 hPa NNE 1.6 km/h 3.2 km/h 80% 0 mm
20:56 22.7 °C 19.3 °C 1010.7 hPa Calm     81% 0 mm
21:01 22.5 °C 19.3 °C 1011.1 hPa NNE 1.6 km/h 1.6 km/h 82% 0 mm
21:06 22.4 °C 19.3 °C 1011.1 hPa NE 4.8 km/h 4.8 km/h 83% 0 mm
21:11 22.2 °C 19.2 °C 1011.1 hPa NE 3.2 km/h 3.2 km/h 83% 0 mm
21:16 22.3 °C 19.3 °C 1011.4 hPa NE 4.8 km/h 8 km/h 83% 0 mm
21:21 22.6 °C 19.4 °C 1011.4 hPa NNE 4.8 km/h 9.7 km/h 82% 0 mm
21:26 22.7 °C 19.4 °C 1011.7 hPa NE 3.2 km/h 8 km/h 82% 0 mm
21:32 22.7 °C 19.4 °C 1011.7 hPa NE 1.6 km/h 4.8 km/h 82% 0 mm
21:37 22.6 °C 19.4 °C 1011.7 hPa ENE 1.6 km/h 4.8 km/h 82% 0 mm
21:42 22.6 °C 19.2 °C 1011.7 hPa NE 6.4 km/h 6.4 km/h 81% 0 mm
21:47 22.6 °C 19 °C 1011.7 hPa ENE 3.2 km/h 8 km/h 80% 0 mm
21:52 22.7 °C 18.8 °C 1011.7 hPa NE 6.4 km/h 8 km/h 79% 0 mm
21:57 22.7 °C 18.7 °C 1011.7 hPa ENE 3.2 km/h 4.8 km/h 78% 0 mm
22:02 22.6 °C 18.6 °C 1011.7 hPa ENE 4.8 km/h 4.8 km/h 78% 0 mm
22:07 22.6 °C 18.3 °C 1011.7 hPa NNE 9.7 km/h 16.1 km/h 77% 0 mm
22:12 22.7 °C 18.4 °C 1011.7 hPa NE 4.8 km/h 12.9 km/h 77% 0 mm
22:17 22.7 °C 18.5 °C 1011.7 hPa NNE 4.8 km/h 12.9 km/h 77% 0 mm
22:22 22.5 °C 18.5 °C 1012.1 hPa NNE 4.8 km/h 8 km/h 78% 0 mm
22:27 22.3 °C 18.3 °C 1012.1 hPa ENE 1.6 km/h 8 km/h 78% 0 mm
22:32 22.2 °C 18.2 °C 1011.7 hPa NE 3.2 km/h 6.4 km/h 78% 0 mm
22:37 22.2 °C 18.2 °C 1012.1 hPa NE 3.2 km/h 8 km/h 78% 0 mm
22:42 22.1 °C 18.1 °C 1012.1 hPa ENE 3.2 km/h 4.8 km/h 78% 0 mm
22:47 22.2 °C 18.2 °C 1012.1 hPa ENE 1.6 km/h 6.4 km/h 78% 0 mm
22:52 22.1 °C 18.1 °C 1012.1 hPa SE 3.2 km/h 4.8 km/h 78% 0 mm
22:57 21.7 °C 18.1 °C 1012.1 hPa SE 1.6 km/h 6.4 km/h 80% 0 mm
23:02 21.4 °C 18 °C 1012.1 hPa ESE 3.2 km/h 4.8 km/h 81% 0 mm
23:07 21.3 °C 17.9 °C 1012.1 hPa Calm   3.2 km/h 81% 0 mm
23:12 21.2 °C 17.8 °C 1012.1 hPa Calm     81% 0 mm
23:17 20.9 °C 17.8 °C 1012.1 hPa Calm     82% 0 mm
23:22 20.8 °C 17.6 °C 1012.1 hPa Calm     82% 0 mm
23:27 20.6 °C 17.6 °C 1012.1 hPa SE 1.6 km/h 4.8 km/h 83% 0 mm
23:32 20.4 °C 17.4 °C 1012.1 hPa Calm     83% 0 mm
23:37 20.5 °C 17.3 °C 1012.1 hPa Calm   4.8 km/h 82% 0 mm
23:42 20.5 °C 17.3 °C 1012.1 hPa ESE 3.2 km/h 3.2 km/h 82% 0 mm
23:47 20.7 °C 17.3 °C 1011.7 hPa SE 3.2 km/h 4.8 km/h 81% 0 mm
23:52 20.6 °C 17.2 °C 1011.7 hPa SSW 3.2 km/h 3.2 km/h 81% 0 mm
23:57 20.6 °C 17.4 °C 1011.4 hPa South 3.2 km/h 4.8 km/h 82% 0 mm
Compliments of Weather Underground